Time;durP1;ratioP1;P1;durP2;ratioP2;P2;SDS_P1;SDS_P2;PMS_P1;PMS_P2;Temp;Humidity;BMP_temperature;BMP_pressure;BME280_temperature;BME280_humidity;BME280_pressure;Samples;Min_cycle;Max_cycle;Signal;HPM_P1;HPM_P2
2023/04/04 00:00:10;;;;;;;10.18;3.63;;;1.60;99.90;;;;;;5096769;28;20043;-70
2023/04/04 00:02:36;;;;;;;11.65;3.50;;;1.60;99.90;;;;;;5097163;28;20043;-70
2023/04/04 00:05:03;;;;;;;10.77;3.17;;;1.50;99.90;;;;;;5114934;28;20106;-71
2023/04/04 00:07:29;;;;;;;7.60;3.08;;;1.50;99.90;;;;;;5113724;28;20136;-71
2023/04/04 00:09:55;;;;;;;8.70;2.60;;;1.50;99.90;;;;;;5096630;28;20138;-71
2023/04/04 00:12:21;;;;;;;7.90;2.75;;;1.50;99.90;;;;;;5115170;28;20084;-69
2023/04/04 00:14:47;;;;;;;10.00;2.30;;;1.50;99.90;;;;;;5114746;28;20537;-71
2023/04/04 00:17:13;;;;;;;8.45;2.65;;;1.40;99.90;;;;;;5114601;28;20044;-70
2023/04/04 00:19:38;;;;;;;7.65;2.22;;;1.40;99.90;;;;;;5115185;28;20043;-72
2023/04/04 00:22:04;;;;;;;9.05;2.45;;;1.40;99.90;;;;;;5115061;28;20040;-71
2023/04/04 00:24:30;;;;;;;10.18;2.75;;;1.30;99.90;;;;;;5096639;28;20124;-71
2023/04/04 00:26:56;;;;;;;10.25;3.10;;;1.30;99.90;;;;;;5114366;28;20055;-71
2023/04/04 00:29:21;;;;;;;6.65;2.85;;;1.30;99.90;;;;;;5096797;28;20427;-72
2023/04/04 00:31:47;;;;;;;8.20;2.92;;;1.30;99.90;;;;;;5097325;28;20510;-71
2023/04/04 00:34:13;;;;;;;9.38;3.42;;;1.30;99.90;;;;;;5096216;28;20046;-70
2023/04/04 00:36:39;;;;;;;9.50;3.65;;;1.30;99.90;;;;;;5114704;28;20047;-71
2023/04/04 00:39:04;;;;;;;8.50;3.38;;;1.30;99.90;;;;;;5096394;28;20052;-71
2023/04/04 00:41:30;;;;;;;11.32;3.40;;;1.30;99.90;;;;;;5114176;28;20047;-69
2023/04/04 00:43:56;;;;;;;9.75;2.53;;;1.30;99.90;;;;;;5114701;28;20521;-72
2023/04/04 00:46:23;;;;;;;8.38;3.30;;;1.30;99.90;;;;;;5114160;28;20116;-71
2023/04/04 00:48:50;;;;;;;10.13;3.42;;;1.20;99.90;;;;;;5096318;28;20055;-71
2023/04/04 00:51:16;;;;;;;9.25;3.28;;;1.30;99.90;;;;;;5114601;28;20035;-71
2023/04/04 00:53:45;;;;;;;8.75;3.17;;;1.20;99.90;;;;;;5114103;28;20058;-71
2023/04/04 00:56:12;;;;;;;10.25;2.78;;;1.10;99.90;;;;;;5113891;28;20035;-71
2023/04/04 00:58:38;;;;;;;10.68;3.28;;;1.10;99.90;;;;;;5114055;28;20070;-70
2023/04/04 01:01:04;;;;;;;9.85;3.28;;;1.10;99.90;;;;;;5113856;28;20077;-71
2023/04/04 01:03:31;;;;;;;9.17;3.10;;;1.10;99.90;;;;;;5079219;28;20119;-72
2023/04/04 01:05:58;;;;;;;9.18;3.17;;;1.10;99.90;;;;;;5113843;28;20040;-71
2023/04/04 01:08:26;;;;;;;9.52;3.13;;;1.20;99.90;;;;;;5114123;28;20086;-72
2023/04/04 01:10:52;;;;;;;6.90;2.63;;;1.10;99.90;;;;;;5113852;28;20101;-71
2023/04/04 01:13:18;;;;;;;9.35;3.15;;;1.30;99.90;;;;;;5114190;28;20079;-71
2023/04/04 01:15:44;;;;;;;9.30;2.80;;;1.20;99.90;;;;;;5114179;28;20044;-71
2023/04/04 01:18:14;;;;;;;10.85;3.33;;;1.20;99.90;;;;;;5113703;28;20090;-71
2023/04/04 01:21:10;;;;;;;7.78;2.80;;;1.20;99.90;;;;;;5096580;28;20044;-71
2023/04/04 01:23:45;;;;;;;7.38;2.90;;;1.20;99.90;;;;;;5099759;28;20392;-72
2023/04/04 01:26:11;;;;;;;7.97;3.03;;;1.10;99.90;;;;;;5102341;28;20040;-71
2023/04/04 01:28:37;;;;;;;8.15;2.90;;;1.10;99.90;;;;;;5103181;28;20055;-72
2023/04/04 01:31:06;;;;;;;9.77;3.08;;;1.10;99.90;;;;;;5120424;28;20067;-72
2023/04/04 01:33:39;;;;;;;10.95;3.00;;;1.20;99.90;;;;;;5121166;28;20411;-71
2023/04/04 01:36:10;;;;;;;8.68;2.85;;;1.10;99.90;;;;;;5102905;28;20044;-71
2023/04/04 01:38:52;;;;;;;8.93;3.13;;;1.10;99.90;;;;;;5120397;28;20055;-70
2023/04/04 01:41:20;;;;;;;12.68;3.13;;;1.10;99.90;;;;;;5086023;28;20051;-71
2023/04/04 01:43:46;;;;;;;;;;;1.10;99.90;;;;;;5120332;28;20078;-70
2023/04/04 01:46:12;;;;;;;8.82;2.95;;;1.10;99.90;;;;;;5120337;28;19920;-72
2023/04/04 01:48:38;;;;;;;8.48;2.97;;;1.10;99.90;;;;;;5102249;28;20058;-72
2023/04/04 01:51:04;;;;;;;8.57;3.10;;;1.10;99.90;;;;;;5085270;28;20069;-71
2023/04/04 01:53:29;;;;;;;9.50;2.92;;;1.00;99.90;;;;;;5086318;28;20144;-72
2023/04/04 01:55:55;;;;;;;9.73;3.08;;;1.00;99.90;;;;;;5102636;28;20483;-71
2023/04/04 01:58:21;;;;;;;9.57;3.00;;;1.00;99.90;;;;;;5102945;28;20079;-71
2023/04/04 02:00:47;;;;;;;7.72;3.28;;;0.90;99.90;;;;;;5085365;28;20134;-70
2023/04/04 02:03:13;;;;;;;8.77;3.33;;;0.90;99.90;;;;;;5120089;28;20562;-71
2023/04/04 02:05:38;;;;;;;9.45;3.15;;;0.90;99.90;;;;;;5119906;28;20047;-71
2023/04/04 02:08:04;;;;;;;9.98;3.50;;;0.90;99.90;;;;;;5120134;28;20062;-74
2023/04/04 02:10:30;;;;;;;10.07;3.10;;;0.90;99.90;;;;;;5120556;28;20079;-71
2023/04/04 02:12:56;;;;;;;12.25;3.40;;;0.90;99.90;;;;;;5120819;28;20359;-71
2023/04/04 02:15:23;;;;;;;8.97;3.33;;;0.80;99.90;;;;;;5119953;28;20051;-71
2023/04/04 02:17:48;;;;;;;9.18;2.83;;;0.80;99.90;;;;;;5101828;28;20301;-72
2023/04/04 02:20:18;;;;;;;8.35;3.15;;;0.80;99.90;;;;;;5101924;28;20137;-70
2023/04/04 02:22:54;;;;;;;10.88;3.08;;;0.80;99.90;;;;;;5120061;28;20396;-71
2023/04/04 02:25:21;;;;;;;6.82;2.80;;;0.80;99.90;;;;;;5102524;28;20063;-72
2023/04/04 02:27:47;;;;;;;10.63;2.90;;;0.80;99.90;;;;;;5119990;28;20498;-71
2023/04/04 02:30:13;;;;;;;7.47;3.10;;;0.70;99.90;;;;;;5101819;28;20059;-71
2023/04/04 02:32:39;;;;;;;10.77;3.22;;;0.70;99.90;;;;;;5119930;28;20052;-71
2023/04/04 02:35:05;;;;;;;8.45;3.33;;;0.60;99.90;;;;;;5117739;28;20387;-71
2023/04/04 02:37:31;;;;;;;8.43;3.53;;;0.60;99.90;;;;;;5117404;28;20364;-71
2023/04/04 02:39:57;;;;;;;11.80;3.47;;;0.60;99.90;;;;;;5116909;28;20115;-71
2023/04/04 02:42:22;;;;;;;11.73;3.28;;;0.60;99.90;;;;;;5116147;28;20487;-70
2023/04/04 02:44:48;;;;;;;12.82;3.05;;;0.60;99.90;;;;;;5115528;28;20131;-70
2023/04/04 02:47:14;;;;;;;10.10;3.40;;;0.60;99.90;;;;;;5117070;28;20520;-71
2023/04/04 02:49:40;;;;;;;10.50;3.60;;;0.50;99.90;;;;;;5098320;28;20047;-74
2023/04/04 02:52:07;;;;;;;8.95;3.22;;;0.50;99.90;;;;;;5098437;28;20116;-75
2023/04/04 02:54:32;;;;;;;9.10;3.22;;;0.50;99.90;;;;;;5116290;28;20043;-76
2023/04/04 02:56:58;;;;;;;11.70;3.63;;;0.40;99.90;;;;;;5116436;28;20044;-77
2023/04/04 02:59:24;;;;;;;10.40;4.07;;;0.40;99.90;;;;;;5081306;28;20086;-74
2023/04/04 03:01:50;;;;;;;8.07;3.50;;;0.40;99.90;;;;;;5098419;28;20044;-77
2023/04/04 03:04:18;;;;;;;11.60;3.20;;;0.40;99.90;;;;;;5081128;28;20054;-76
2023/04/04 03:06:47;;;;;;;9.57;2.88;;;0.40;99.90;;;;;;5081714;28;20528;-75
2023/04/04 03:09:13;;;;;;;13.55;3.40;;;0.30;99.90;;;;;;5098146;28;20055;-73
2023/04/04 03:11:39;;;;;;;7.65;2.90;;;0.30;99.90;;;;;;5116555;28;20044;-75
2023/04/04 03:14:05;;;;;;;9.20;3.80;;;0.30;99.90;;;;;;5081134;28;20062;-75
2023/04/04 03:16:31;;;;;;;11.15;2.92;;;0.20;99.90;;;;;;5116337;28;20434;-74
2023/04/04 03:18:56;;;;;;;8.75;3.40;;;0.20;99.90;;;;;;5114819;28;20047;-75
2023/04/04 03:21:22;;;;;;;9.85;3.17;;;0.20;99.90;;;;;;5097715;28;20051;-76
2023/04/04 03:23:48;;;;;;;12.77;3.45;;;0.20;99.90;;;;;;5080976;28;20055;-76
2023/04/04 03:26:14;;;;;;;7.70;2.92;;;0.20;99.90;;;;;;5098116;28;20047;-75
2023/04/04 03:28:40;;;;;;;9.50;3.35;;;0.20;99.90;;;;;;5097705;28;20047;-76
2023/04/04 03:31:06;;;;;;;9.43;3.65;;;0.20;99.90;;;;;;5080929;28;20073;-75
2023/04/04 03:33:35;;;;;;;11.55;3.33;;;0.20;99.90;;;;;;5097466;28;20056;-73
2023/04/04 03:36:01;;;;;;;7.85;2.97;;;0.20;99.90;;;;;;5098000;28;20403;-75
2023/04/04 03:38:27;;;;;;;10.80;3.30;;;0.20;99.90;;;;;;5115648;28;20051;-75
2023/04/04 03:41:02;;;;;;;7.38;2.90;;;0.10;99.90;;;;;;5115653;28;20051;-74
2023/04/04 03:43:29;;;;;;;8.55;3.03;;;0.10;99.90;;;;;;5097210;28;20142;-74
2023/04/04 03:45:59;;;;;;;9.50;3.13;;;0.10;99.90;;;;;;5113908;28;20436;-75
2023/04/04 03:48:26;;;;;;;11.45;3.42;;;0.10;99.90;;;;;;5097990;28;20137;-74
2023/04/04 03:50:51;;;;;;;12.98;3.65;;;0.10;99.90;;;;;;5097956;28;20048;-75
2023/04/04 03:53:17;;;;;;;8.52;3.33;;;0.10;99.90;;;;;;5113993;28;20054;-74
2023/04/04 03:55:43;;;;;;;11.82;3.67;;;0.00;99.90;;;;;;5096977;28;20486;-74
2023/04/04 03:58:08;;;;;;;8.50;3.25;;;0.00;99.90;;;;;;5081016;28;20043;-76
2023/04/04 04:00:34;;;;;;;10.80;3.55;;;-0.10;99.90;;;;;;5080275;28;20136;-75
2023/04/04 04:03:00;;;;;;;7.80;3.30;;;-0.10;99.90;;;;;;5080676;28;20081;-73
2023/04/04 04:05:26;;;;;;;10.50;3.15;;;-0.10;99.90;;;;;;5096790;28;20040;-75
2023/04/04 04:07:52;;;;;;;9.65;3.03;;;-0.10;99.90;;;;;;5114648;28;20040;-75
2023/04/04 04:10:18;;;;;;;16.90;3.38;;;-0.10;99.90;;;;;;5114872;28;20105;-76
2023/04/04 04:12:43;;;;;;;10.35;2.92;;;-0.10;99.90;;;;;;5080749;28;20047;-75
2023/04/04 04:15:12;;;;;;;12.57;3.28;;;-0.20;99.90;;;;;;5096963;28;20047;-75
2023/04/04 04:17:41;;;;;;;9.30;3.17;;;-0.20;99.90;;;;;;5096690;28;20058;-73
2023/04/04 04:20:08;;;;;;;8.98;2.95;;;-0.20;99.90;;;;;;5080434;28;20091;-74
2023/04/04 04:22:35;;;;;;;11.75;3.10;;;-0.20;99.90;;;;;;5114963;28;20495;-74
2023/04/04 04:25:00;;;;;;;11.88;3.67;;;-0.20;99.90;;;;;;5096664;28;20391;-74
2023/04/04 04:27:26;;;;;;;8.63;3.03;;;-0.10;99.90;;;;;;5097439;28;20104;-75
2023/04/04 04:29:52;;;;;;;9.63;3.13;;;-0.20;99.90;;;;;;5079923;28;20091;-75
2023/04/04 04:32:18;;;;;;;8.10;3.53;;;-0.20;99.90;;;;;;5096737;28;20044;-75
2023/04/04 04:34:44;;;;;;;7.47;3.30;;;-0.20;99.90;;;;;;5096351;28;20097;-75
2023/04/04 04:37:09;;;;;;;11.88;3.80;;;-0.20;99.90;;;;;;5079591;28;20054;-76
2023/04/04 04:39:35;;;;;;;11.48;3.33;;;-0.20;99.90;;;;;;5114513;28;20058;-74
2023/04/04 04:42:02;;;;;;;11.07;3.25;;;-0.30;99.90;;;;;;5096179;28;20126;-75
2023/04/04 04:44:27;;;;;;;9.88;3.40;;;-0.30;99.90;;;;;;5095789;28;20055;-73
2023/04/04 04:46:53;;;;;;;10.23;4.35;;;-0.30;99.90;;;;;;5096097;28;20044;-74
2023/04/04 04:49:19;;;;;;;11.00;4.63;;;-0.30;99.90;;;;;;5080049;28;20044;-74
2023/04/04 04:51:45;;;;;;;14.20;4.97;;;-0.40;99.90;;;;;;5113894;28;20043;-74
2023/04/04 04:54:11;;;;;;;9.05;3.50;;;-0.40;99.90;;;;;;5111192;28;20112;-75
2023/04/04 04:56:36;;;;;;;9.50;3.40;;;-0.40;99.90;;;;;;5113951;28;20082;-75
2023/04/04 04:59:02;;;;;;;8.25;3.17;;;-0.40;99.90;;;;;;5112964;28;20043;-74
2023/04/04 05:01:28;;;;;;;10.98;3.40;;;-0.40;99.90;;;;;;5078852;28;20399;-73
2023/04/04 05:03:54;;;;;;;8.48;3.50;;;-0.50;99.90;;;;;;5079131;28;20139;-75
2023/04/04 05:06:20;;;;;;;13.38;3.80;;;-0.40;99.90;;;;;;5113831;28;20040;-75
2023/04/04 05:08:46;;;;;;;12.50;4.40;;;-0.50;99.90;;;;;;5078898;28;20055;-76
2023/04/04 05:11:12;;;;;;;10.40;3.90;;;-0.50;99.90;;;;;;5095641;28;20051;-76
2023/04/04 05:13:39;;;;;;;10.43;3.90;;;-0.60;99.90;;;;;;5096546;28;20051;-76
2023/04/04 05:16:04;;;;;;;10.68;3.60;;;-0.50;99.90;;;;;;5095223;28;20047;-76
2023/04/04 05:18:30;;;;;;;12.02;3.45;;;-0.40;99.90;;;;;;5113704;28;20035;-73
2023/04/04 05:20:56;;;;;;;10.95;3.60;;;-0.50;99.90;;;;;;5095750;28;20044;-77
2023/04/04 05:23:22;;;;;;;10.07;3.53;;;-0.40;99.90;;;;;;5096317;28;20391;-74
2023/04/04 05:25:50;;;;;;;10.02;4.35;;;-0.40;99.90;;;;;;5113787;28;20051;-74
2023/04/04 05:28:16;;;;;;;9.27;4.35;;;-0.40;99.90;;;;;;5096679;28;20443;-75
2023/04/04 05:30:42;;;;;;;10.30;4.40;;;-0.30;99.90;;;;;;5062431;28;20066;-74
2023/04/04 05:33:07;;;;;;;10.02;3.83;;;-0.30;99.90;;;;;;5079323;28;20383;-74
2023/04/04 05:35:33;;;;;;;8.85;4.05;;;-0.20;99.90;;;;;;5113537;28;20042;-75
2023/04/04 05:37:59;;;;;;;10.45;4.50;;;-0.10;99.90;;;;;;5079707;28;20421;-73
2023/04/04 05:40:25;;;;;;;10.85;5.20;;;-0.10;99.90;;;;;;5113959;28;20368;-76
2023/04/04 05:42:55;;;;;;;12.20;4.93;;;0.00;99.90;;;;;;5095274;28;20414;-75
2023/04/04 05:45:21;;;;;;;15.52;4.68;;;0.10;99.90;;;;;;5079317;28;20040;-73
2023/04/04 05:47:46;;;;;;;15.77;4.40;;;0.20;99.90;;;;;;5095672;28;20119;-74
2023/04/04 05:50:13;;;;;;;14.25;4.78;;;0.40;99.90;;;;;;5113571;28;20055;-75
2023/04/04 05:52:38;;;;;;;9.63;3.95;;;0.50;99.90;;;;;;5078646;28;20055;-74
2023/04/04 05:55:04;;;;;;;9.60;3.80;;;0.60;99.90;;;;;;5113486;28;20097;-75
2023/04/04 05:57:31;;;;;;;8.68;3.35;;;0.70;99.90;;;;;;5078680;28;20051;-74
2023/04/04 05:59:57;;;;;;;9.23;3.45;;;0.80;99.90;;;;;;5113464;28;20049;-74
2023/04/04 06:02:23;;;;;;;10.60;3.70;;;0.90;99.90;;;;;;5078679;28;20048;-74
2023/04/04 06:04:49;;;;;;;12.52;4.68;;;1.00;99.90;;;;;;5078594;28;20128;-73
2023/04/04 06:07:15;;;;;;;12.45;4.65;;;1.10;99.90;;;;;;5113353;28;20130;-74
2023/04/04 06:09:42;;;;;;;9.65;3.70;;;1.10;99.90;;;;;;5115197;28;20122;-74
2023/04/04 06:12:08;;;;;;;13.15;3.67;;;1.20;99.90;;;;;;5082558;28;20060;-75
2023/04/04 06:14:35;;;;;;;10.43;3.30;;;1.20;99.90;;;;;;5099084;28;20048;-75
2023/04/04 06:17:01;;;;;;;6.18;2.70;;;1.30;99.90;;;;;;5117153;28;20043;-74
2023/04/04 06:19:26;;;;;;;7.07;2.78;;;1.30;99.90;;;;;;5082015;28;20054;-74
2023/04/04 06:21:52;;;;;;;11.00;3.17;;;1.40;99.90;;;;;;5117666;28;20123;-74
2023/04/04 06:24:18;;;;;;;10.95;3.50;;;1.40;99.90;;;;;;5098761;28;20376;-74
2023/04/04 06:26:44;;;;;;;10.52;3.70;;;1.50;99.90;;;;;;5099028;28;20046;-74
2023/04/04 06:29:10;;;;;;;9.15;3.08;;;1.40;99.90;;;;;;5082757;28;20468;-75
2023/04/04 06:31:36;;;;;;;7.57;3.10;;;1.40;99.90;;;;;;5116838;28;20048;-73
2023/04/04 06:34:02;;;;;;;9.63;3.00;;;1.40;99.90;;;;;;5081810;28;20058;-75
2023/04/04 06:36:28;;;;;;;11.57;3.03;;;1.50;99.90;;;;;;5081574;28;20040;-75
2023/04/04 06:38:53;;;;;;;8.25;3.15;;;1.50;99.90;;;;;;5116771;28;20471;-75
2023/04/04 06:41:19;;;;;;;10.45;3.75;;;1.50;99.90;;;;;;5116684;28;20044;-75
2023/04/04 06:43:48;;;;;;;10.40;3.33;;;1.50;99.90;;;;;;5081668;28;20568;-72
2023/04/04 06:46:13;;;;;;;9.10;3.13;;;1.60;99.90;;;;;;5099123;28;20044;-76
2023/04/04 06:48:39;;;;;;;11.30;3.28;;;1.60;99.90;;;;;;5099215;28;20040;-74
2023/04/04 06:51:08;;;;;;;7.72;2.90;;;1.60;99.90;;;;;;5098437;28;20399;-74
2023/04/04 06:53:34;;;;;;;9.70;3.03;;;1.60;99.90;;;;;;5082642;28;20051;-73
2023/04/04 06:56:00;;;;;;;8.40;2.83;;;1.70;99.90;;;;;;5098143;28;20051;-73
2023/04/04 06:58:26;;;;;;;8.13;2.63;;;1.70;99.90;;;;;;5081696;28;20043;-72
2023/04/04 07:00:51;;;;;;;7.47;2.53;;;1.90;99.90;;;;;;5116540;28;20053;-74
2023/04/04 07:03:18;;;;;;;7.60;2.40;;;1.90;99.90;;;;;;5065465;28;20494;-75
2023/04/04 07:05:44;;;;;;;8.43;2.38;;;2.00;99.90;;;;;;5116935;28;20047;-75
2023/04/04 07:08:10;;;;;;;9.93;2.60;;;2.10;99.90;;;;;;5116160;28;20131;-73
2023/04/04 07:10:35;;;;;;;8.25;2.45;;;2.20;99.90;;;;;;5098220;28;20169;-74
2023/04/04 07:13:01;;;;;;;7.30;2.30;;;2.20;99.90;;;;;;5097993;28;20052;-74
2023/04/04 07:15:27;;;;;;;7.05;2.47;;;2.40;99.90;;;;;;5115875;28;20042;-74
2023/04/04 07:17:53;;;;;;;5.25;1.80;;;2.40;99.90;;;;;;5080775;28;20134;-73
2023/04/04 07:20:19;;;;;;;8.68;2.30;;;2.50;99.90;;;;;;5080283;28;20074;-74
2023/04/04 07:22:45;;;;;;;8.48;2.40;;;2.60;99.90;;;;;;5116154;28;20048;-75
2023/04/04 07:25:13;;;;;;;10.20;2.92;;;2.60;99.90;;;;;;5081072;28;20506;-73
2023/04/04 07:27:42;;;;;;;5.43;2.25;;;2.60;99.90;;;;;;5115674;28;20043;-74
2023/04/04 07:30:08;;;;;;;10.23;2.50;;;2.80;99.90;;;;;;5081047;28;20131;-74
2023/04/04 07:32:34;;;;;;;8.53;2.50;;;2.90;99.90;;;;;;5097737;28;20044;-74
2023/04/04 07:35:00;;;;;;;7.15;2.10;;;3.00;99.90;;;;;;5081046;28;20042;-75
2023/04/04 07:37:26;;;;;;;5.00;1.63;;;3.10;99.90;;;;;;5097519;28;20347;-76
2023/04/04 07:39:52;;;;;;;6.53;2.05;;;3.20;99.90;;;;;;5115695;28;20046;-75
2023/04/04 07:42:21;;;;;;;6.47;1.70;;;3.30;99.90;;;;;;5116267;28;20047;-73
2023/04/04 07:44:51;;;;;;;5.93;1.67;;;3.40;99.90;;;;;;5081699;28;20079;-76
2023/04/04 07:47:20;;;;;;;6.70;1.48;;;3.50;99.90;;;;;;5081391;28;20520;-74
2023/04/04 07:49:46;;;;;;;5.65;2.00;;;3.50;99.90;;;;;;5097833;28;20417;-76
2023/04/04 07:52:12;;;;;;;7.03;2.17;;;3.60;99.90;;;;;;5097404;28;20047;-75
2023/04/04 07:54:39;;;;;;;7.18;1.95;;;3.80;99.90;;;;;;5081423;28;20044;-77
2023/04/04 07:57:05;;;;;;;7.40;1.52;;;3.80;99.90;;;;;;5098082;28;20099;-76
2023/04/04 07:59:31;;;;;;;5.97;1.75;;;4.00;99.90;;;;;;5097530;28;20058;-75
2023/04/04 08:01:57;;;;;;;9.43;1.50;;;4.10;99.90;;;;;;5115130;28;20039;-74
2023/04/04 08:04:23;;;;;;;5.47;1.52;;;4.10;99.90;;;;;;5097239;28;20051;-75
2023/04/04 08:06:49;;;;;;;5.78;1.80;;;4.10;99.90;;;;;;5080848;28;20062;-75
2023/04/04 08:09:15;;;;;;;8.02;1.63;;;4.10;99.90;;;;;;5081018;28;20129;-75
2023/04/04 08:11:41;;;;;;;5.43;1.67;;;4.30;99.90;;;;;;5097083;28;20047;-76
2023/04/04 08:14:10;;;;;;;6.32;1.35;;;4.30;99.90;;;;;;5064558;28;20062;-76
2023/04/04 08:16:37;;;;;;;7.85;1.60;;;4.50;99.90;;;;;;5114846;28;20417;-75
2023/04/04 08:19:03;;;;;;;6.35;1.52;;;4.50;99.90;;;;;;5079775;28;20054;-76
2023/04/04 08:21:29;;;;;;;5.15;1.50;;;4.50;99.90;;;;;;5097456;28;20042;-74
2023/04/04 08:23:55;;;;;;;8.57;1.52;;;4.50;99.90;;;;;;5080448;28;20452;-76
2023/04/04 08:26:21;;;;;;;9.43;2.00;;;4.70;99.90;;;;;;5096589;28;20031;-76
2023/04/04 08:28:47;;;;;;;8.68;2.10;;;4.60;99.90;;;;;;5080658;28;20047;-76
2023/04/04 08:31:13;;;;;;;8.93;1.67;;;4.70;99.90;;;;;;5114552;28;20090;-74
2023/04/04 08:33:39;;;;;;;8.23;2.28;;;4.80;99.90;;;;;;5097300;28;20077;-76
2023/04/04 08:36:04;;;;;;;6.35;1.52;;;4.90;99.90;;;;;;5079312;28;20047;-75
2023/04/04 08:38:30;;;;;;;9.75;1.98;;;5.00;99.90;;;;;;5114812;28;20169;-75
2023/04/04 08:40:57;;;;;;;5.88;1.33;;;5.10;99.90;;;;;;5114721;28;20047;-76
2023/04/04 08:43:24;;;;;;;7.13;1.70;;;5.20;99.90;;;;;;5114458;28;20387;-75
2023/04/04 08:45:52;;;;;;;4.80;1.38;;;5.20;99.90;;;;;;5113353;28;20052;-74
2023/04/04 08:48:20;;;;;;;6.30;1.55;;;5.40;99.90;;;;;;5114406;28;20097;-75
2023/04/04 08:50:47;;;;;;;8.60;1.38;;;5.40;99.90;;;;;;5113150;28;20074;-74
2023/04/04 08:53:14;;;;;;;4.20;1.45;;;5.50;99.90;;;;;;5095732;28;20522;-76
2023/04/04 08:55:41;;;;;;;6.43;1.30;;;5.50;99.90;;;;;;5095984;28;20391;-75
2023/04/04 08:58:08;;;;;;;3.53;1.13;;;5.60;99.90;;;;;;5079658;28;20047;-74
2023/04/04 09:00:33;;;;;;;4.15;1.23;;;5.70;99.90;;;;;;5062622;28;20463;-76
2023/04/04 09:03:13;;;;;;;3.83;0.90;;;5.70;99.90;;;;;;5095871;28;20038;-74
2023/04/04 09:05:40;;;;;;;5.18;1.30;;;5.80;99.90;;;;;;5096512;28;20144;-75
2023/04/04 09:08:06;;;;;;;6.45;1.48;;;5.80;99.90;;;;;;5096761;28;20091;-74
2023/04/04 09:10:32;;;;;;;9.27;2.45;;;5.90;99.90;;;;;;5113002;28;20104;-75
2023/04/04 09:12:59;;;;;;;7.30;0.93;;;5.90;99.90;;;;;;5095679;28;20467;-76
2023/04/04 09:15:25;;;;;;;3.40;0.98;;;6.00;99.90;;;;;;5096890;28;20564;-78
2023/04/04 09:17:51;;;;;;;5.05;0.85;;;6.00;99.90;;;;;;5080806;28;20055;-75
2023/04/04 09:20:34;;;;;;;8.60;1.40;;;6.10;99.90;;;;;;5096914;28;20036;-74
2023/04/04 09:23:00;;;;;;;2.42;0.82;;;6.10;99.90;;;;;;5114743;28;20036;-74
2023/04/04 09:25:26;;;;;;;5.70;1.13;;;6.20;99.90;;;;;;5095975;28;20046;-75
2023/04/04 09:27:52;;;;;;;5.25;1.55;;;6.30;99.90;;;;;;5095881;28;20047;-75
2023/04/04 09:30:19;;;;;;;8.20;1.00;;;6.30;99.90;;;;;;5096151;28;20491;-76
2023/04/04 09:32:46;;;;;;;7.03;1.90;;;6.30;99.80;;;;;;5113637;28;20051;-75
2023/04/04 09:35:14;;;;;;;4.07;0.90;;;6.30;99.90;;;;;;5095516;28;20130;-76
2023/04/04 09:37:41;;;;;;;6.25;0.77;;;6.30;97.70;;;;;;5079378;28;20047;-75
2023/04/04 09:40:09;;;;;;;4.27;0.80;;;6.40;98.80;;;;;;5113609;28;20048;-75
2023/04/04 09:42:35;;;;;;;5.75;0.70;;;6.40;99.90;;;;;;5079378;28;20078;-74
2023/04/04 09:45:01;;;;;;;5.22;0.90;;;6.50;99.90;;;;;;5098495;28;20052;-75
2023/04/04 09:47:29;;;;;;;5.85;0.95;;;6.60;99.90;;;;;;5117715;28;20490;-76
2023/04/04 09:50:06;;;;;;;5.20;1.10;;;6.50;99.90;;;;;;5082643;28;20098;-73
2023/04/04 09:52:35;;;;;;;5.97;1.08;;;6.40;98.80;;;;;;5100410;28;20055;-75
2023/04/04 09:55:03;;;;;;;3.95;0.70;;;6.40;99.80;;;;;;5117288;28;20070;-75
2023/04/04 09:57:30;;;;;;;4.88;1.20;;;6.50;99.70;;;;;;5116358;28;20047;-74
2023/04/04 10:00:01;;;;;;;8.27;1.33;;;6.50;99.90;;;;;;5099049;28;20092;-74
2023/04/04 10:02:29;;;;;;;6.28;1.23;;;6.50;99.90;;;;;;5100068;28;20052;-75
2023/04/04 10:04:56;;;;;;;5.65;1.42;;;6.40;98.10;;;;;;5117739;28;20122;-76
2023/04/04 10:07:25;;;;;;;5.05;1.23;;;6.30;97.60;;;;;;5083032;28;20055;-76
2023/04/04 10:09:51;;;;;;;5.18;0.90;;;6.20;97.80;;;;;;5099284;28;20056;-75
2023/04/04 10:12:22;;;;;;;6.15;1.50;;;6.50;99.60;;;;;;5117063;28;20088;-73
2023/04/04 10:14:54;;;;;;;4.78;1.10;;;6.70;99.30;;;;;;5117997;28;20044;-79
2023/04/04 10:17:22;;;;;;;4.25;1.13;;;6.70;97.60;;;;;;5116937;28;20487;-73
2023/04/04 10:19:48;;;;;;;;;;;6.80;98.00;;;;;;5117471;28;20048;-77
2023/04/04 10:22:15;;;;;;;4.53;1.20;;;6.90;99.60;;;;;;5098901;28;19927;-73
2023/04/04 10:24:40;;;;;;;7.28;1.40;;;7.00;99.80;;;;;;5099284;28;20044;-74
2023/04/04 10:27:06;;;;;;;7.32;1.08;;;7.10;99.40;;;;;;5117339;28;20062;-75
2023/04/04 10:29:32;;;;;;;4.13;1.10;;;7.10;99.90;;;;;;5117369;28;20491;-73
2023/04/04 10:32:12;;;;;;;4.72;1.42;;;7.10;98.70;;;;;;5116619;28;20198;-76
2023/04/04 10:34:46;;;;;;;4.70;1.50;;;7.10;96.40;;;;;;5098913;28;20126;-76
2023/04/04 10:37:18;;;;;;;8.65;1.35;;;6.90;96.10;;;;;;5116306;28;20487;-73
2023/04/04 10:40:01;;;;;;;10.00;1.55;;;7.10;97.90;;;;;;5082642;28;20051;-74
2023/04/04 10:42:32;;;;;;;5.97;1.50;;;7.10;96.30;;;;;;5082694;28;20048;-75
2023/04/04 10:45:01;;;;;;;4.50;1.48;;;7.10;96.00;;;;;;5098458;28;20052;-76
2023/04/04 10:47:28;;;;;;;7.22;1.50;;;7.00;94.60;;;;;;5098361;28;20386;-77
2023/04/04 10:49:55;;;;;;;6.07;1.80;;;7.10;95.60;;;;;;5117176;28;20048;-73
2023/04/04 10:52:23;;;;;;;7.55;1.73;;;7.00;94.80;;;;;;5117313;28;20043;-76
2023/04/04 10:54:51;;;;;;;5.68;1.40;;;7.10;94.30;;;;;;5097459;28;20506;-75
2023/04/04 10:57:17;;;;;;;5.60;1.42;;;7.10;94.90;;;;;;5115425;28;20069;-75
2023/04/04 11:00:10;;;;;;;4.00;1.25;;;7.20;94.00;;;;;;5116318;28;20487;-74
2023/04/04 11:02:56;;;;;;;4.22;1.20;;;7.30;95.10;;;;;;5098523;28;20122;-74
2023/04/04 11:05:26;;;;;;;9.73;1.60;;;7.40;94.60;;;;;;5116198;28;20050;-76
2023/04/04 11:08:01;;;;;;;6.25;1.10;;;7.50;93.90;;;;;;5098073;28;20089;-78
2023/04/04 11:10:29;;;;;;;4.68;1.35;;;7.60;93.20;;;;;;5098798;28;20056;-76
2023/04/04 11:13:03;;;;;;;4.30;1.02;;;7.70;94.60;;;;;;5116592;28;20410;-75
2023/04/04 11:16:06;;;;;;;4.40;1.02;;;7.80;94.20;;;;;;5116104;28;20064;-75
2023/04/04 11:18:38;;;;;;;3.65;1.00;;;8.00;94.50;;;;;;5116947;28;20123;-76
2023/04/04 11:21:09;;;;;;;4.15;0.90;;;8.20;94.80;;;;;;5099084;28;20126;-77
2023/04/04 11:23:50;;;;;;;7.90;1.27;;;8.30;94.60;;;;;;5082017;28;20047;-75
2023/04/04 11:26:27;;;;;;;6.88;0.98;;;8.30;90.10;;;;;;5081950;28;20036;-76
2023/04/04 11:29:01;;;;;;;4.70;1.30;;;8.40;92.90;;;;;;5098000;28;20071;-74
2023/04/04 11:31:28;;;;;;;6.55;1.13;;;8.60;93.50;;;;;;5099211;28;20048;-75
2023/04/04 11:34:09;;;;;;;5.03;1.27;;;8.40;88.40;;;;;;5097624;28;20079;-76
2023/04/04 11:36:35;;;;;;;4.28;1.00;;;8.50;90.40;;;;;;5098127;28;20050;-75
2023/04/04 11:39:27;;;;;;;9.40;1.23;;;8.80;92.90;;;;;;5097363;28;20051;-75
2023/04/04 11:42:02;;;;;;;5.30;1.00;;;9.00;92.10;;;;;;5080724;28;20083;-74
2023/04/04 11:44:29;;;;;;;5.63;1.00;;;8.70;90.00;;;;;;5097462;28;20066;-75
2023/04/04 11:47:04;;;;;;;10.57;1.33;;;8.80;90.20;;;;;;5097324;28;20039;-74
2023/04/04 11:49:34;;;;;;;6.07;1.52;;;8.90;91.90;;;;;;5115473;28;20047;-76
2023/04/04 11:52:05;;;;;;;6.03;1.10;;;8.90;90.50;;;;;;5115732;28;20116;-75
2023/04/04 11:54:31;;;;;;;5.32;1.20;;;9.00;87.60;;;;;;5098030;28;20058;-75
2023/04/04 11:56:57;;;;;;;3.85;0.80;;;8.60;87.80;;;;;;5116256;28;20432;-72
2023/04/04 11:59:23;;;;;;;8.10;1.15;;;8.70;87.70;;;;;;5114888;28;20043;-75
2023/04/04 12:01:50;;;;;;;5.10;1.15;;;8.90;87.40;;;;;;5117066;28;20047;-75
2023/04/04 12:04:19;;;;;;;5.07;1.40;;;8.90;88.10;;;;;;5116523;28;20036;-73
2023/04/04 12:06:50;;;;;;;5.20;1.10;;;8.90;87.80;;;;;;5118167;28;20048;-76
2023/04/04 12:09:17;;;;;;;5.18;1.40;;;9.10;90.30;;;;;;5081391;28;20479;-75
2023/04/04 12:11:44;;;;;;;6.07;1.60;;;9.10;89.50;;;;;;5098866;28;20044;-76
2023/04/04 12:14:17;;;;;;;4.00;0.93;;;9.30;90.00;;;;;;5116013;28;20119;-74
2023/04/04 12:16:44;;;;;;;5.13;1.58;;;9.20;85.00;;;;;;5097382;28;20512;-76
2023/04/04 12:19:11;;;;;;;5.82;1.23;;;9.10;85.10;;;;;;5115140;28;20044;-76
2023/04/04 12:21:37;;;;;;;7.70;1.60;;;9.00;81.10;;;;;;5115269;28;20086;-76
2023/04/04 12:24:03;;;;;;;4.57;1.00;;;9.00;80.70;;;;;;5079994;28;20075;-75
2023/04/04 12:26:31;;;;;;;5.75;1.27;;;9.30;86.60;;;;;;5114550;28;20083;-72
2023/04/04 12:28:58;;;;;;;6.05;1.40;;;9.20;80.20;;;;;;5114635;28;20044;-75
2023/04/04 12:31:28;;;;;;;6.55;1.17;;;8.90;81.50;;;;;;5114455;28;20180;-70
2023/04/04 12:33:54;;;;;;;5.38;1.30;;;9.00;83.90;;;;;;5096739;28;20069;-68
2023/04/04 12:36:24;;;;;;;6.35;1.50;;;9.20;85.70;;;;;;5114850;28;20338;-73
2023/04/04 12:38:59;;;;;;;6.65;1.60;;;9.40;86.80;;;;;;5079493;28;20192;-74
2023/04/04 12:41:26;;;;;;;5.15;1.30;;;9.40;81.60;;;;;;5114903;28;20055;-72
2023/04/04 12:44:01;;;;;;;5.90;1.40;;;9.30;82.80;;;;;;5096261;28;20059;-67
2023/04/04 12:46:27;;;;;;;4.88;1.25;;;9.60;83.90;;;;;;5096489;28;20403;-69
2023/04/04 12:48:53;;;;;;;5.32;1.10;;;9.50;79.90;;;;;;5095948;28;20059;-71
2023/04/04 12:51:19;;;;;;;6.33;1.20;;;9.70;82.90;;;;;;5096143;28;20067;-71
2023/04/04 12:53:52;;;;;;;4.90;1.63;;;9.60;78.60;;;;;;5095915;28;20391;-70